Time;durP1;ratioP1;P1;durP2;ratioP2;P2;SDS_P1;SDS_P2;PMS_P1;PMS_P2;Temp;Humidity;BMP_temperature;BMP_pressure;BME280_temperature;BME280_humidity;BME280_pressure;Samples;Min_cycle;Max_cycle;Signal;HPM_P1;HPM_P2
2021/04/21 00:00:12;;;;;;;71.32;38.28;;;9.80;99.90;;;;;;4961677;28;20019;-75
2021/04/21 00:02:39;;;;;;;77.30;38.92;;;9.80;99.90;;;;;;4942181;28;20061;-75
2021/04/21 00:05:08;;;;;;;80.43;40.83;;;9.80;99.90;;;;;;4949140;28;20584;-76
2021/04/21 00:07:35;;;;;;;78.68;39.00;;;9.80;99.90;;;;;;4967146;28;20470;-74
2021/04/21 00:10:03;;;;;;;76.40;40.63;;;9.80;99.90;;;;;;4961338;28;20053;-74
2021/04/21 00:12:30;;;;;;;79.63;40.72;;;9.70;99.90;;;;;;4948788;28;20130;-75
2021/04/21 00:14:56;;;;;;;82.45;39.88;;;9.70;99.90;;;;;;4958341;28;20031;-73
2021/04/21 00:17:24;;;;;;;82.80;40.72;;;9.70;99.90;;;;;;4975679;28;20035;-74
2021/04/21 00:19:53;;;;;;;82.47;42.65;;;9.60;99.90;;;;;;4964840;28;20022;-75
2021/04/21 00:22:21;;;;;;;77.95;39.60;;;9.60;99.90;;;;;;4954316;28;20030;-75
2021/04/21 00:24:49;;;;;;;82.30;40.60;;;9.60;99.90;;;;;;4945935;28;20040;-74
2021/04/21 00:27:19;;;;;;;85.20;42.13;;;9.60;99.90;;;;;;4957488;28;20035;-74
2021/04/21 00:29:49;;;;;;;82.90;43.45;;;9.70;99.90;;;;;;4966558;28;20035;-75
2021/04/21 00:32:16;;;;;;;81.72;40.70;;;9.60;99.90;;;;;;4958576;28;20419;-76
2021/04/21 00:34:46;;;;;;;77.22;41.22;;;9.60;99.90;;;;;;4970501;28;20548;-76
2021/04/21 00:37:12;;;;;;;81.63;41.08;;;9.60;99.90;;;;;;4967670;28;20028;-75
2021/04/21 00:39:43;;;;;;;86.28;42.28;;;9.60;99.90;;;;;;4959104;28;20378;-75
2021/04/21 00:43:03;;;;;;;82.13;42.65;;;9.50;99.90;;;;;;4964670;28;20039;-77
2021/04/21 00:45:39;;;;;;;79.05;42.35;;;9.40;99.90;;;;;;4918087;28;20870;-75
2021/04/21 00:48:25;;;;;;;78.03;42.42;;;9.30;99.90;;;;;;4950917;28;20035;-76
2021/04/21 00:51:01;;;;;;;82.05;40.10;;;9.40;99.90;;;;;;4959933;28;20035;-76
2021/04/21 00:53:51;;;;;;;81.10;41.33;;;9.40;99.90;;;;;;4957231;28;20515;-76
2021/04/21 00:57:03;;;;;;;83.00;42.25;;;9.40;99.90;;;;;;4956720;28;20505;-76
2021/04/21 00:59:59;;;;;;;88.70;42.23;;;9.40;99.90;;;;;;4951752;28;20027;-75
2021/04/21 01:02:32;;;;;;;80.97;40.88;;;9.40;99.90;;;;;;4960402;28;20268;-76
2021/04/21 01:05:02;;;;;;;83.63;41.47;;;9.40;99.90;;;;;;4967058;28;20019;-74
2021/04/21 01:07:31;;;;;;;84.07;41.10;;;9.40;99.90;;;;;;4960006;28;20372;-75
2021/04/21 01:10:01;;;;;;;81.30;40.42;;;9.40;99.90;;;;;;4970288;28;20058;-76
2021/04/21 01:12:29;;;;;;;79.20;41.15;;;9.30;99.90;;;;;;4975739;28;20168;-77
2021/04/21 01:14:56;;;;;;;87.78;41.40;;;9.30;99.90;;;;;;4978596;28;20027;-75
2021/04/21 01:17:24;;;;;;;80.80;41.55;;;9.30;99.90;;;;;;4986312;28;20040;-76
2021/04/21 01:19:59;;;;;;;78.07;39.47;;;9.30;99.90;;;;;;4985144;28;20019;-76
2021/04/21 01:23:10;;;;;;;82.85;40.45;;;9.30;99.90;;;;;;4980917;28;20039;-76
2021/04/21 01:25:50;;;;;;;81.50;38.83;;;9.30;99.90;;;;;;4992113;28;20279;-75
2021/04/21 01:28:27;;;;;;;78.80;39.72;;;9.20;99.90;;;;;;4983818;28;20102;-74
2021/04/21 01:30:55;;;;;;;79.18;38.30;;;9.20;99.90;;;;;;5018125;28;20015;-76
2021/04/21 01:33:23;;;;;;;70.88;37.33;;;9.20;99.90;;;;;;4975682;28;20030;-75
2021/04/21 01:36:00;;;;;;;78.38;38.20;;;9.10;99.90;;;;;;4950588;28;20046;-76
2021/04/21 01:38:27;;;;;;;69.72;35.72;;;9.10;99.90;;;;;;4965994;28;20054;-76
2021/04/21 01:40:57;;;;;;;67.07;34.53;;;9.10;99.90;;;;;;4949594;28;20031;-75
2021/04/21 01:43:39;;;;;;;64.15;33.40;;;9.20;99.90;;;;;;4957269;28;20168;-75
2021/04/21 01:46:07;;;;;;;61.05;29.83;;;9.20;99.90;;;;;;4968509;28;20026;-75
2021/04/21 01:48:34;;;;;;;63.40;31.40;;;9.20;99.90;;;;;;4965009;28;20507;-76
2021/04/21 01:51:13;;;;;;;62.63;29.77;;;9.20;99.90;;;;;;4970228;28;20034;-75
2021/04/21 01:53:54;;;;;;;64.70;30.90;;;9.20;99.90;;;;;;4972394;28;20501;-76
2021/04/21 01:56:33;;;;;;;58.85;29.80;;;9.20;99.90;;;;;;4967823;28;20509;-74
2021/04/21 01:59:15;;;;;;;60.28;30.63;;;9.20;99.90;;;;;;4965907;28;20592;-74
2021/04/21 02:01:48;;;;;;;58.70;28.58;;;9.10;99.90;;;;;;4958242;28;20596;-75
2021/04/21 02:04:35;;;;;;;56.53;29.10;;;9.10;99.90;;;;;;4965650;28;20152;-77
2021/04/21 02:07:22;;;;;;;59.42;29.17;;;9.10;99.90;;;;;;4953813;28;20697;-75
2021/04/21 02:10:11;;;;;;;59.33;29.27;;;9.10;99.90;;;;;;4962002;28;20097;-74
2021/04/21 02:13:09;;;;;;;55.20;28.42;;;9.10;99.90;;;;;;4965872;28;20059;-75
2021/04/21 02:15:54;;;;;;;61.00;27.92;;;9.10;99.90;;;;;;4965288;28;20023;-75
2021/04/21 02:18:49;;;;;;;62.33;30.13;;;9.00;99.90;;;;;;4966895;28;20402;-75
2021/04/21 02:21:27;;;;;;;63.33;29.75;;;9.00;99.90;;;;;;4953484;28;20019;-76
2021/04/21 02:24:19;;;;;;;60.72;29.20;;;8.90;99.90;;;;;;4951865;28;20018;-75
2021/04/21 02:27:21;;;;;;;59.13;29.80;;;8.90;99.90;;;;;;5005529;28;20086;-74
2021/04/21 02:29:56;;;;;;;60.58;29.13;;;8.80;99.90;;;;;;4953177;28;20020;-76
2021/04/21 02:32:34;;;;;;;55.85;28.17;;;8.80;99.90;;;;;;4969429;28;20022;-76
2021/04/21 02:35:01;;;;;;;59.42;30.98;;;8.80;99.90;;;;;;4960580;28;20031;-75
2021/04/21 02:37:52;;;;;;;64.88;31.33;;;8.70;99.90;;;;;;5003624;28;20030;-75
2021/04/21 02:40:27;;;;;;;61.05;30.70;;;8.70;99.90;;;;;;4967534;28;20114;-74
2021/04/21 02:43:02;;;;;;;68.97;31.60;;;8.70;99.90;;;;;;4979241;28;20046;-74
2021/04/21 02:46:10;;;;;;;56.88;29.15;;;8.70;99.90;;;;;;4953783;28;20032;-74
2021/04/21 02:48:46;;;;;;;56.97;28.63;;;8.70;99.90;;;;;;4964919;28;20027;-74
2021/04/21 02:51:50;;;;;;;66.22;30.00;;;8.70;99.90;;;;;;4963385;28;20031;-75
2021/04/21 02:54:47;;;;;;;56.22;28.25;;;8.70;99.90;;;;;;4961028;28;20036;-75
2021/04/21 02:57:26;;;;;;;61.08;29.35;;;8.70;99.90;;;;;;4955377;28;20039;-76
2021/04/21 02:59:57;;;;;;;60.85;30.80;;;8.70;99.90;;;;;;4974911;28;20024;-75
2021/04/21 03:02:36;;;;;;;59.55;28.90;;;8.70;99.90;;;;;;4966444;28;20038;-74
2021/04/21 03:05:28;;;;;;;60.15;29.75;;;8.70;99.90;;;;;;4972018;28;20106;-75
2021/04/21 03:08:13;;;;;;;60.42;29.10;;;8.70;99.90;;;;;;4960757;28;20041;-75
2021/04/21 03:10:45;;;;;;;57.13;29.60;;;8.70;99.90;;;;;;4980164;28;20070;-74
2021/04/21 03:13:20;;;;;;;60.03;29.38;;;8.70;99.90;;;;;;4978799;28;20026;-76
2021/04/21 03:15:50;;;;;;;56.58;29.27;;;8.60;99.90;;;;;;4969979;28;20035;-76
2021/04/21 03:18:20;;;;;;;51.80;26.75;;;8.60;99.90;;;;;;4974451;28;20046;-75
2021/04/21 03:21:07;;;;;;;48.58;27.02;;;8.70;99.90;;;;;;4973423;28;20067;-74
2021/04/21 03:23:37;;;;;;;58.22;27.90;;;8.60;99.90;;;;;;4951025;28;20052;-74
2021/04/21 03:26:04;;;;;;;49.00;28.35;;;8.50;99.90;;;;;;4964007;28;20027;-75
2021/04/21 03:28:31;;;;;;;56.38;28.25;;;8.50;99.90;;;;;;4972611;28;20023;-75
2021/04/21 03:31:01;;;;;;;54.97;27.40;;;8.50;99.90;;;;;;4990502;28;20039;-75
2021/04/21 03:33:32;;;;;;;52.38;25.90;;;8.50;99.90;;;;;;4970940;28;20429;-75
2021/04/21 03:35:59;;;;;;;54.97;26.50;;;8.50;99.90;;;;;;4978821;28;20039;-74
2021/04/21 03:38:28;;;;;;;55.03;26.02;;;8.40;99.90;;;;;;4982490;28;20018;-76
2021/04/21 03:40:57;;;;;;;44.95;23.85;;;8.40;99.90;;;;;;4978686;28;20018;-74
2021/04/21 03:43:23;;;;;;;48.72;23.85;;;8.40;99.90;;;;;;4957854;28;20435;-77
2021/04/21 03:45:50;;;;;;;52.45;25.45;;;8.40;99.90;;;;;;4959110;28;20110;-75
2021/04/21 03:48:17;;;;;;;49.75;25.27;;;8.40;99.90;;;;;;4961986;28;20046;-74
2021/04/21 03:50:50;;;;;;;51.47;23.95;;;8.40;99.90;;;;;;4962374;28;20077;-75
2021/04/21 03:53:20;;;;;;;45.10;23.80;;;8.30;99.90;;;;;;4959973;28;20027;-78
2021/04/21 03:55:47;;;;;;;44.95;22.75;;;8.30;99.90;;;;;;4946873;28;20020;-74
2021/04/21 03:58:17;;;;;;;45.92;23.67;;;8.30;99.90;;;;;;4968626;28;20487;-74
2021/04/21 04:00:49;;;;;;;46.65;23.45;;;8.30;99.90;;;;;;4970734;28;20026;-74
2021/04/21 04:03:22;;;;;;;48.53;22.58;;;8.30;99.90;;;;;;4971748;28;20089;-76
2021/04/21 04:06:05;;;;;;;45.08;23.45;;;8.30;99.90;;;;;;4963889;28;20045;-74
2021/04/21 04:08:39;;;;;;;44.63;21.65;;;8.20;99.90;;;;;;4966644;28;20038;-75
2021/04/21 04:11:06;;;;;;;45.97;22.60;;;8.20;99.90;;;;;;4970031;28;20035;-74
2021/04/21 04:13:34;;;;;;;45.83;23.08;;;8.30;99.90;;;;;;4967923;28;20089;-75
2021/04/21 04:16:01;;;;;;;46.47;22.30;;;8.30;99.90;;;;;;4936283;28;20142;-75
2021/04/21 04:18:30;;;;;;;40.00;20.55;;;8.20;99.90;;;;;;4954599;28;20031;-76
2021/04/21 04:21:01;;;;;;;44.13;22.00;;;8.20;99.90;;;;;;4962427;28;20076;-75
2021/04/21 04:23:32;;;;;;;47.78;23.23;;;8.20;99.90;;;;;;4941238;28;20027;-74
2021/04/21 04:25:59;;;;;;;44.47;22.02;;;8.20;99.90;;;;;;4957186;28;20023;-75
2021/04/21 04:28:28;;;;;;;49.95;21.92;;;8.20;99.90;;;;;;4960787;28;20031;-75
2021/04/21 04:30:55;;;;;;;41.63;21.00;;;8.10;99.90;;;;;;4943650;28;20028;-75
2021/04/21 04:33:25;;;;;;;42.60;22.05;;;8.10;99.90;;;;;;4955056;28;20070;-74
2021/04/21 04:35:51;;;;;;;42.92;21.00;;;8.10;99.90;;;;;;4963430;28;20399;-77
2021/04/21 04:38:17;;;;;;;44.30;21.85;;;8.10;99.90;;;;;;4961912;28;20458;-76
2021/04/21 04:40:43;;;;;;;36.10;19.80;;;8.20;99.90;;;;;;4962397;28;20031;-74
2021/04/21 04:43:10;;;;;;;35.17;19.38;;;8.10;99.90;;;;;;4968342;28;20069;-75
2021/04/21 04:45:40;;;;;;;47.17;20.73;;;8.20;99.90;;;;;;4968202;28;20033;-75
2021/04/21 04:48:13;;;;;;;39.88;19.70;;;8.20;99.90;;;;;;4956892;28;20098;-76
2021/04/21 04:50:39;;;;;;;;;;;8.20;99.90;;;;;;4965483;28;20077;-76
2021/04/21 04:53:08;;;;;;;39.05;19.58;;;8.10;99.90;;;;;;4960534;28;20328;-75
2021/04/21 04:55:35;;;;;;;46.13;20.20;;;8.20;99.90;;;;;;4959053;28;20039;-75
2021/04/21 04:58:04;;;;;;;44.55;20.85;;;8.10;99.90;;;;;;4971065;28;20039;-74
2021/04/21 05:00:33;;;;;;;38.13;21.42;;;8.10;99.90;;;;;;4956092;28;20062;-75
2021/04/21 05:03:14;;;;;;;41.35;20.20;;;8.20;99.90;;;;;;4944813;28;20049;-75
2021/04/21 05:05:42;;;;;;;36.80;19.98;;;8.10;99.90;;;;;;4957881;28;20023;-75
2021/04/21 05:08:12;;;;;;;45.33;21.20;;;8.20;99.90;;;;;;4961788;28;20031;-76
2021/04/21 05:11:08;;;;;;;40.05;21.23;;;8.20;99.90;;;;;;4969254;28;20028;-76
2021/04/21 05:13:56;;;;;;;41.08;21.52;;;8.20;99.90;;;;;;4961283;28;20023;-74
2021/04/21 05:16:25;;;;;;;46.70;21.52;;;8.20;99.90;;;;;;4960365;28;20058;-74
2021/04/21 05:19:14;;;;;;;50.22;22.88;;;8.20;99.90;;;;;;4958199;28;20042;-75
2021/04/21 05:22:02;;;;;;;40.60;21.63;;;8.20;99.90;;;;;;4954467;28;20073;-76
2021/04/21 05:24:58;;;;;;;44.08;23.70;;;8.20;99.90;;;;;;4970597;28;20031;-73
2021/04/21 05:28:12;;;;;;;47.83;24.70;;;8.20;99.90;;;;;;4969596;28;20494;-73
2021/04/21 05:30:53;;;;;;;38.80;21.70;;;8.20;99.90;;;;;;4972069;28;20137;-74
2021/04/21 05:33:39;;;;;;;50.95;23.58;;;8.20;99.90;;;;;;4965413;28;20072;-74
2021/04/21 05:36:24;;;;;;;48.45;24.08;;;8.30;99.90;;;;;;4958681;28;20029;-73
2021/04/21 05:39:08;;;;;;;53.05;24.80;;;8.30;99.90;;;;;;4963085;28;20545;-75
2021/04/21 05:41:48;;;;;;;51.30;24.50;;;8.30;99.90;;;;;;4959807;28;20142;-74
2021/04/21 05:44:53;;;;;;;52.22;23.65;;;8.30;99.90;;;;;;4952981;28;20540;-71
2021/04/21 05:47:56;;;;;;;50.78;26.15;;;8.40;99.90;;;;;;4952887;28;20019;-74
2021/04/21 05:50:51;;;;;;;46.50;24.98;;;8.40;99.90;;;;;;4961843;28;20035;-73
2021/04/21 05:53:32;;;;;;;52.03;24.17;;;8.40;99.90;;;;;;4964598;28;20394;-73
2021/04/21 05:56:35;;;;;;;43.40;23.40;;;8.50;99.90;;;;;;4952476;28;20457;-74
2021/04/21 05:59:33;;;;;;;47.83;24.02;;;8.50;99.90;;;;;;4936655;28;20124;-73
2021/04/21 06:02:00;;;;;;;43.58;22.38;;;8.60;99.90;;;;;;4943744;28;20030;-73
2021/04/21 06:04:25;;;;;;;47.92;22.13;;;8.70;99.90;;;;;;4968188;28;20111;-74
2021/04/21 06:07:13;;;;;;;39.83;20.73;;;8.70;99.90;;;;;;4955331;28;20065;-74
2021/04/21 06:09:39;;;;;;;36.28;19.08;;;8.80;99.90;;;;;;4956868;28;20027;-75
2021/04/21 06:12:10;;;;;;;41.20;20.02;;;8.90;99.90;;;;;;4963099;28;20034;-75
2021/04/21 06:14:40;;;;;;;40.47;19.25;;;9.00;99.90;;;;;;4961388;28;20031;-74
2021/04/21 06:17:06;;;;;;;36.22;18.00;;;9.00;99.90;;;;;;4946223;28;20046;-73
2021/04/21 06:19:33;;;;;;;34.55;17.92;;;9.10;99.90;;;;;;4944949;28;20023;-73
2021/04/21 06:22:09;;;;;;;32.22;18.65;;;9.10;99.90;;;;;;4967462;28;20030;-75
2021/04/21 06:24:35;;;;;;;41.10;18.83;;;9.10;99.90;;;;;;4953650;28;20031;-72
2021/04/21 06:27:11;;;;;;;44.38;21.33;;;9.10;99.90;;;;;;4959969;28;20027;-74
2021/04/21 06:29:37;;;;;;;50.67;21.02;;;9.10;99.90;;;;;;4964975;28;20030;-75
2021/04/21 06:32:10;;;;;;;42.75;22.25;;;9.10;99.90;;;;;;4971859;28;20025;-74
2021/04/21 06:34:39;;;;;;;40.85;22.02;;;9.10;99.90;;;;;;4973920;28;20509;-75
2021/04/21 06:37:06;;;;;;;43.05;21.67;;;9.00;99.90;;;;;;4959533;28;20613;-73
2021/04/21 06:39:32;;;;;;;44.03;22.80;;;9.00;99.90;;;;;;4962724;28;20031;-74
2021/04/21 06:42:04;;;;;;;48.80;24.73;;;9.10;99.90;;;;;;4954989;28;20377;-75
2021/04/21 06:44:42;;;;;;;50.83;24.20;;;9.10;99.90;;;;;;4962518;28;20138;-74
2021/04/21 06:47:09;;;;;;;50.22;25.95;;;9.20;99.90;;;;;;4961487;28;20402;-74
2021/04/21 06:49:35;;;;;;;51.35;26.05;;;9.20;99.90;;;;;;5020295;28;20463;-77
2021/04/21 06:52:15;;;;;;;49.58;25.70;;;9.30;99.90;;;;;;4966263;28;20050;-76
2021/04/21 06:54:41;;;;;;;49.88;25.77;;;9.30;99.90;;;;;;4977459;28;20039;-75
2021/04/21 06:57:07;;;;;;;45.38;23.35;;;9.30;99.90;;;;;;4947621;28;20548;-73
2021/04/21 06:59:35;;;;;;;49.85;24.60;;;9.30;99.90;;;;;;4972071;28;20054;-73
2021/04/21 07:02:03;;;;;;;50.90;24.88;;;9.40;99.90;;;;;;4956801;28;20031;-75
2021/04/21 07:04:34;;;;;;;52.72;25.75;;;9.50;99.90;;;;;;4965976;28;20573;-74
2021/04/21 07:07:00;;;;;;;52.28;24.65;;;9.50;99.90;;;;;;4949591;28;20107;-72
2021/04/21 07:09:25;;;;;;;53.22;26.85;;;9.60;99.90;;;;;;4941855;28;20094;-74
2021/04/21 07:12:00;;;;;;;55.40;28.45;;;9.50;99.90;;;;;;4966662;28;20029;-76
2021/04/21 07:14:30;;;;;;;57.08;29.20;;;9.70;99.90;;;;;;5030209;28;20015;-77
2021/04/21 07:16:58;;;;;;;57.75;28.77;;;9.70;99.90;;;;;;4981455;28;20053;-75
2021/04/21 07:19:26;;;;;;;62.78;30.83;;;9.80;99.90;;;;;;4968999;28;20487;-74
2021/04/21 07:21:57;;;;;;;57.97;29.88;;;9.90;99.90;;;;;;4949192;28;20059;-74
2021/04/21 07:24:33;;;;;;;61.30;30.10;;;9.80;99.90;;;;;;4955425;28;20053;-72
2021/04/21 07:27:09;;;;;;;55.50;29.33;;;9.90;99.90;;;;;;4969724;28;20077;-75
2021/04/21 07:29:43;;;;;;;54.85;27.65;;;9.90;99.90;;;;;;4952875;28;20446;-75
2021/04/21 07:32:23;;;;;;;53.33;28.20;;;10.00;99.90;;;;;;4958112;28;20047;-74
2021/04/21 07:35:06;;;;;;;60.28;29.65;;;10.10;99.90;;;;;;4963972;28;20030;-77
2021/04/21 07:37:37;;;;;;;60.90;29.08;;;10.20;99.90;;;;;;4966664;28;20054;-79
2021/04/21 07:40:29;;;;;;;49.67;27.40;;;10.30;99.90;;;;;;4989732;28;20041;-75
2021/04/21 07:43:13;;;;;;;55.55;29.08;;;10.40;99.90;;;;;;4966441;28;20019;-74
2021/04/21 07:45:43;;;;;;;52.97;28.58;;;10.40;99.90;;;;;;4990504;28;20101;-75
2021/04/21 07:48:33;;;;;;;55.67;29.38;;;10.50;99.90;;;;;;4979967;28;20042;-77
2021/04/21 07:51:35;;;;;;;55.58;29.73;;;10.60;99.90;;;;;;4968605;28;20049;-77
2021/04/21 07:54:04;;;;;;;54.55;29.65;;;10.80;99.90;;;;;;4975086;28;20050;-75
2021/04/21 07:56:35;;;;;;;55.78;29.25;;;10.80;99.90;;;;;;5028015;28;20150;-74
2021/04/21 07:59:22;;;;;;;55.78;29.48;;;10.80;99.90;;;;;;4982694;28;20167;-76
2021/04/21 08:01:50;;;;;;;59.55;30.48;;;10.80;99.90;;;;;;4976042;28;20038;-75
2021/04/21 08:04:16;;;;;;;63.38;31.25;;;10.80;99.90;;;;;;4942317;28;20023;-75
2021/04/21 08:06:43;;;;;;;54.38;28.27;;;10.70;99.90;;;;;;4973033;28;20051;-76
2021/04/21 08:09:09;;;;;;;54.80;29.15;;;10.90;99.90;;;;;;4958117;28;20027;-76
2021/04/21 08:11:38;;;;;;;57.75;30.90;;;11.10;99.90;;;;;;4943772;28;20497;-74
2021/04/21 08:14:11;;;;;;;52.13;30.15;;;11.10;99.90;;;;;;4968308;28;20502;-75
2021/04/21 08:16:37;;;;;;;48.63;26.80;;;11.40;99.90;;;;;;4987851;28;20528;-76
2021/04/21 08:19:19;;;;;;;52.65;26.35;;;11.30;99.90;;;;;;4972141;28;20027;-76
2021/04/21 08:21:48;;;;;;;50.30;26.23;;;11.50;99.90;;;;;;4962756;28;20546;-77
2021/04/21 08:24:16;;;;;;;51.80;25.98;;;11.50;99.90;;;;;;4962660;28;20027;-75
2021/04/21 08:26:47;;;;;;;46.28;25.92;;;11.50;99.90;;;;;;4965964;28;20019;-75
2021/04/21 08:29:16;;;;;;;43.83;23.38;;;11.70;99.90;;;;;;4976419;28;20046;-77
2021/04/21 08:31:46;;;;;;;43.03;24.33;;;11.80;99.90;;;;;;4959825;28;20122;-75
2021/04/21 08:34:20;;;;;;;49.95;23.15;;;11.80;99.90;;;;;;4964103;28;20114;-77
2021/04/21 08:36:46;;;;;;;40.90;22.13;;;12.10;99.90;;;;;;4959136;28;20023;-77
2021/04/21 08:39:12;;;;;;;43.78;21.88;;;12.10;99.90;;;;;;4956191;28;20054;-76
2021/04/21 08:41:44;;;;;;;42.60;22.98;;;12.20;99.90;;;;;;4956483;28;20043;-76
2021/04/21 08:44:11;;;;;;;43.13;23.93;;;12.30;99.90;;;;;;4945394;28;20019;-75
2021/04/21 08:46:38;;;;;;;35.55;22.05;;;12.50;99.90;;;;;;4985938;28;20044;-75
2021/04/21 08:49:06;;;;;;;52.53;25.13;;;12.50;99.90;;;;;;4963518;28;20019;-76
2021/04/21 08:51:32;;;;;;;43.72;24.55;;;12.20;99.90;;;;;;4965193;28;20119;-75
2021/04/21 08:54:06;;;;;;;46.85;25.63;;;12.20;99.90;;;;;;4962354;28;20023;-76
2021/04/21 08:56:35;;;;;;;46.00;26.25;;;12.30;99.90;;;;;;4955771;28;20579;-73
2021/04/21 08:59:05;;;;;;;48.65;28.95;;;12.70;99.90;;;;;;4971857;28;20054;-74
2021/04/21 09:01:31;;;;;;;55.38;30.85;;;12.40;99.90;;;;;;4974746;28;20035;-73
2021/04/21 09:03:57;;;;;;;46.65;27.45;;;12.40;99.90;;;;;;4978853;28;20110;-74
2021/04/21 09:06:22;;;;;;;53.15;29.40;;;12.20;99.90;;;;;;4964748;28;20019;-73
2021/04/21 09:08:51;;;;;;;47.83;29.75;;;12.10;99.90;;;;;;4971061;28;20026;-72
2021/04/21 09:11:18;;;;;;;53.42;30.42;;;12.10;99.90;;;;;;4985298;28;20041;-75
2021/04/21 09:13:51;;;;;;;54.05;28.85;;;12.30;99.90;;;;;;4969107;28;20030;-73
2021/04/21 09:16:19;;;;;;;50.90;28.88;;;12.70;99.90;;;;;;4966425;28;20126;-76
2021/04/21 09:18:45;;;;;;;49.90;28.80;;;12.70;99.90;;;;;;4964478;28;20034;-75
2021/04/21 09:21:21;;;;;;;49.35;29.25;;;12.50;99.90;;;;;;4968145;28;20034;-76
2021/04/21 09:23:50;;;;;;;49.15;27.05;;;12.50;99.90;;;;;;4947809;28;20090;-76
2021/04/21 09:26:31;;;;;;;49.92;27.27;;;12.40;99.90;;;;;;4944430;28;20023;-75
2021/04/21 09:29:00;;;;;;;48.22;25.92;;;12.80;99.90;;;;;;4959128;28;20027;-74
2021/04/21 09:31:28;;;;;;;57.33;29.00;;;12.90;99.90;;;;;;4970189;28;20023;-74
2021/04/21 09:34:16;;;;;;;51.50;27.58;;;12.60;99.90;;;;;;4986989;28;20038;-74
2021/04/21 09:36:46;;;;;;;44.92;26.60;;;12.60;99.90;;;;;;4967017;28;20023;-75
2021/04/21 09:39:15;;;;;;;49.75;25.65;;;12.50;99.90;;;;;;5000270;28;20018;-76
2021/04/21 09:41:42;;;;;;;47.75;25.38;;;12.50;99.90;;;;;;4970536;28;20031;-74
2021/04/21 09:44:19;;;;;;;46.58;24.67;;;12.80;99.90;;;;;;4960606;28;20083;-76
2021/04/21 09:46:46;;;;;;;52.40;24.83;;;12.90;99.90;;;;;;4956951;28;20073;-72
2021/04/21 09:49:49;;;;;;;51.17;25.75;;;12.70;99.90;;;;;;4944801;28;20019;-75
2021/04/21 09:52:20;;;;;;;50.05;25.30;;;12.60;99.90;;;;;;4955780;28;20479;-76
2021/04/21 09:54:49;;;;;;;51.00;25.10;;;12.60;99.90;;;;;;4962021;28;20027;-77
2021/04/21 09:57:31;;;;;;;46.22;26.80;;;12.30;99.90;;;;;;4979168;28;20536;-78
2021/04/21 10:00:08;;;;;;;47.97;24.17;;;12.30;99.90;;;;;;4945643;28;20530;-74
2021/04/21 10:02:39;;;;;;;58.95;25.58;;;12.40;99.90;;;;;;4945563;28;20046;-77
2021/04/21 10:05:39;;;;;;;48.78;24.10;;;12.40;99.90;;;;;;4965268;28;20035;-78
2021/04/21 10:08:24;;;;;;;46.63;23.75;;;12.60;99.90;;;;;;4958429;28;20024;-73
2021/04/21 10:11:08;;;;;;;50.13;23.05;;;12.50;99.90;;;;;;4955982;28;20015;-76
2021/04/21 10:13:48;;;;;;;43.80;21.75;;;12.80;99.90;;;;;;4949917;28;20087;-76
2021/04/21 10:16:20;;;;;;;48.83;22.30;;;13.00;99.90;;;;;;4987575;28;20647;-74
2021/04/21 10:18:52;;;;;;;40.35;21.20;;;12.70;99.90;;;;;;4982432;28;20032;-76
2021/04/21 10:21:21;;;;;;;44.50;20.98;;;12.60;99.90;;;;;;4956784;28;20019;-76
2021/04/21 10:23:49;;;;;;;41.72;19.60;;;12.50;99.90;;;;;;4967230;28;20024;-78
2021/04/21 10:26:21;;;;;;;36.28;18.52;;;12.60;99.90;;;;;;4978059;28;20021;-75
2021/04/21 10:29:02;;;;;;;31.25;19.15;;;12.80;99.90;;;;;;5000772;28;20031;-79
2021/04/21 10:31:36;;;;;;;39.88;20.58;;;12.60;99.90;;;;;;5041820;28;20025;-74
2021/04/21 10:34:04;;;;;;;37.50;20.52;;;12.50;99.90;;;;;;4949737;28;20023;-74
2021/04/21 10:36:46;;;;;;;43.03;20.95;;;12.50;99.90;;;;;;4963496;28;20137;-77
2021/04/21 10:39:34;;;;;;;39.05;20.88;;;12.70;99.90;;;;;;4934799;28;20046;-77
2021/04/21 10:42:04;;;;;;;39.53;20.67;;;12.50;99.90;;;;;;4947117;28;20027;-76
2021/04/21 10:44:47;;;;;;;43.40;23.00;;;12.40;99.90;;;;;;4953536;28;20084;-79
2021/04/21 10:47:28;;;;;;;52.05;23.58;;;12.30;99.90;;;;;;4999694;28;20319;-76
2021/04/21 10:50:04;;;;;;;46.50;24.58;;;12.00;99.90;;;;;;5062861;28;20077;-76
2021/04/21 10:52:42;;;;;;;43.55;24.13;;;12.00;99.90;;;;;;4957212;28;20027;-77
2021/04/21 10:55:11;;;;;;;45.60;24.25;;;12.00;99.90;;;;;;4975725;28;20030;-74
2021/04/21 10:57:42;;;;;;;45.25;25.25;;;11.80;99.90;;;;;;4969639;28;20332;-75
2021/04/21 11:00:17;;;;;;;47.85;24.73;;;11.50;99.90;;;;;;4955772;28;20023;-74
2021/04/21 11:02:50;;;;;;;50.33;24.73;;;11.60;99.90;;;;;;4948271;28;20160;-76
2021/04/21 11:05:27;;;;;;;45.85;24.42;;;11.60;99.90;;;;;;4968942;28;20023;-75
2021/04/21 11:08:03;;;;;;;49.85;24.30;;;11.70;99.90;;;;;;4976460;28;20490;-77
2021/04/21 11:10:41;;;;;;;59.28;28.60;;;11.70;99.90;;;;;;4963977;28;20023;-75
2021/04/21 11:13:12;;;;;;;49.30;26.05;;;11.50;99.90;;;;;;4959366;28;20051;-76
2021/04/21 11:15:37;;;;;;;50.50;25.52;;;11.40;99.90;;;;;;4963531;28;20012;-77
2021/04/21 11:18:11;;;;;;;52.92;25.70;;;11.40;99.90;;;;;;4971177;28;20091;-76
2021/04/21 11:20:47;;;;;;;44.75;24.42;;;11.50;99.90;;;;;;4989808;28;20027;-75
2021/04/21 11:23:53;;;;;;;44.05;22.50;;;11.60;99.90;;;;;;5008678;28;20499;-76
2021/04/21 11:26:31;;;;;;;49.58;23.23;;;11.70;99.90;;;;;;4993455;28;20101;-76
2021/04/21 11:29:10;;;;;;;46.10;22.90;;;11.60;99.90;;;;;;4987471;28;20019;-74
2021/04/21 11:31:45;;;;;;;44.83;21.90;;;11.60;99.90;;;;;;4992646;28;20077;-78
2021/04/21 11:34:23;;;;;;;40.33;21.48;;;11.40;99.90;;;;;;4986414;28;20027;-76
2021/04/21 11:36:54;;;;;;;38.90;18.95;;;11.20;99.90;;;;;;4959870;28;20049;-76
2021/04/21 11:42:35;;;;;;;34.67;14.50;;;11.30;99.90;;;;;;4976176;28;20034;-75
2021/04/21 11:45:30;;;;;;;21.98;11.40;;;11.40;99.90;;;;;;4974771;28;20058;-76
2021/04/21 11:48:17;;;;;;;26.92;12.65;;;11.40;99.90;;;;;;4964838;28;20050;-80
2021/04/21 11:50:48;;;;;;;22.27;11.57;;;11.40;99.90;;;;;;4977525;28;20003;-74
2021/04/21 11:53:25;;;;;;;15.15;9.27;;;11.50;99.90;;;;;;4969848;28;20023;-75
2021/04/21 11:55:59;;;;;;;12.00;7.03;;;11.50;99.90;;;;;;4975200;28;20771;-74
2021/04/21 11:58:26;;;;;;;15.98;6.72;;;11.70;99.90;;;;;;4952270;28;20015;-75
2021/04/21 12:01:10;;;;;;;13.55;5.70;;;11.80;99.90;;;;;;4975536;28;20016;-75
2021/04/21 12:03:45;;;;;;;11.60;5.20;;;12.10;99.90;;;;;;4963320;28;20118;-76
2021/04/21 12:06:19;;;;;;;16.10;4.88;;;12.30;99.90;;;;;;4941775;28;20095;-74
2021/04/21 12:08:50;;;;;;;8.93;3.72;;;12.40;99.90;;;;;;4970185;28;20081;-75
2021/04/21 12:11:26;;;;;;;17.10;4.07;;;12.40;99.90;;;;;;4949686;28;20490;-77
2021/04/21 12:13:52;;;;;;;10.90;3.65;;;12.20;99.90;;;;;;4969379;28;20043;-77
2021/04/21 12:16:22;;;;;;;11.45;3.95;;;12.20;99.90;;;;;;4969725;28;20039;-74
2021/04/21 12:18:52;;;;;;;10.63;3.97;;;12.20;99.90;;;;;;4960982;28;20129;-75
2021/04/21 12:21:29;;;;;;;10.20;4.15;;;11.80;99.90;;;;;;4972809;28;20027;-75
2021/04/21 12:24:03;;;;;;;8.25;3.67;;;12.00;99.90;;;;;;4974468;28;20058;-75
2021/04/21 12:26:45;;;;;;;12.55;5.13;;;12.60;99.90;;;;;;4954670;28;20027;-75
2021/04/21 12:29:17;;;;;;;11.30;5.00;;;12.90;99.90;;;;;;4958273;28;20031;-76
2021/04/21 12:31:45;;;;;;;9.82;3.38;;;13.00;99.90;;;;;;4978080;28;20023;-76
2021/04/21 12:34:23;;;;;;;9.95;3.17;;;12.60;99.90;;;;;;4960056;28;20527;-75
2021/04/21 12:36:51;;;;;;;8.45;3.17;;;12.60;99.90;;;;;;4976095;28;20346;-74
2021/04/21 12:39:21;;;;;;;7.85;2.83;;;13.00;99.90;;;;;;4963901;28;20031;-73
2021/04/21 12:41:57;;;;;;;14.35;2.55;;;13.10;99.90;;;;;;4975863;28;20095;-78
2021/04/21 12:44:29;;;;;;;10.80;2.90;;;13.30;99.90;;;;;;4957149;28;20481;-72
2021/04/21 12:47:06;;;;;;;11.85;2.88;;;13.10;99.90;;;;;;4969461;28;20504;-75
2021/04/21 12:49:36;;;;;;;9.25;2.78;;;13.30;99.90;;;;;;4950588;28;20042;-76
2021/04/21 12:52:05;;;;;;;11.35;2.88;;;13.60;99.90;;;;;;4976507;28;20019;-78
2021/04/21 12:54:34;;;;;;;4.95;1.80;;;13.50;99.90;;;;;;4945646;28;20098;-77
2021/04/21 12:57:00;;;;;;;15.07;2.75;;;13.50;99.90;;;;;;4962328;28;20025;-76
2021/04/21 12:59:26;;;;;;;11.70;2.58;;;13.30;99.90;;;;;;4962439;28;20028;-77
2021/04/21 13:01:52;;;;;;;10.18;3.00;;;13.00;99.90;;;;;;4965359;28;20038;-75
2021/04/21 13:04:20;;;;;;;7.25;2.78;;;13.00;99.90;;;;;;4983254;28;20027;-77
2021/04/21 13:06:49;;;;;;;8.40;1.98;;;13.20;99.90;;;;;;4957253;28;20027;-73
2021/04/21 13:09:20;;;;;;;14.98;2.70;;;12.80;99.90;;;;;;4975509;28;20026;-76
2021/04/21 13:12:01;;;;;;;7.10;2.78;;;12.70;99.90;;;;;;4963429;28;20023;-77
2021/04/21 13:14:46;;;;;;;13.52;3.35;;;12.80;99.90;;;;;;4965241;28;20055;-78